sensor_id;sensor_type;location;lat;lon;timestamp;P1;durP1;ratioP1;P2;durP2;ratioP2
7817;SDS011;3954;52.624;9.212;2023-02-28T00:00:22;7.80;;;5.37;;
7817;SDS011;3954;52.624;9.212;2023-02-28T00:02:49;6.30;;;5.00;;
7817;SDS011;3954;52.624;9.212;2023-02-28T00:05:16;8.60;;;5.40;;
7817;SDS011;3954;52.624;9.212;2023-02-28T00:07:42;7.77;;;5.47;;
7817;SDS011;3954;52.624;9.212;2023-02-28T00:10:09;9.67;;;5.27;;
7817;SDS011;3954;52.624;9.212;2023-02-28T00:12:36;7.30;;;5.23;;
7817;SDS011;3954;52.624;9.212;2023-02-28T00:15:04;9.83;;;5.67;;
7817;SDS011;3954;52.624;9.212;2023-02-28T00:17:30;11.50;;;6.73;;
7817;SDS011;3954;52.624;9.212;2023-02-28T00:19:56;10.87;;;7.37;;
7817;SDS011;3954;52.624;9.212;2023-02-28T00:22:29;9.60;;;6.77;;
7817;SDS011;3954;52.624;9.212;2023-02-28T00:24:55;12.77;;;7.77;;
7817;SDS011;3954;52.624;9.212;2023-02-28T00:27:21;11.20;;;7.17;;
7817;SDS011;3954;52.624;9.212;2023-02-28T00:29:47;11.23;;;7.63;;
7817;SDS011;3954;52.624;9.212;2023-02-28T00:32:15;11.80;;;7.77;;
7817;SDS011;3954;52.624;9.212;2023-02-28T00:34:41;11.30;;;7.53;;
7817;SDS011;3954;52.624;9.212;2023-02-28T00:37:08;7.27;;;5.00;;
7817;SDS011;3954;52.624;9.212;2023-02-28T00:39:35;7.70;;;4.80;;
7817;SDS011;3954;52.624;9.212;2023-02-28T00:42:01;7.53;;;4.40;;
7817;SDS011;3954;52.624;9.212;2023-02-28T00:44:28;7.13;;;4.60;;
7817;SDS011;3954;52.624;9.212;2023-02-28T00:46:54;6.33;;;4.30;;
7817;SDS011;3954;52.624;9.212;2023-02-28T00:49:21;6.03;;;4.43;;
7817;SDS011;3954;52.624;9.212;2023-02-28T00:51:48;8.03;;;4.70;;
7817;SDS011;3954;52.624;9.212;2023-02-28T00:54:14;7.87;;;4.93;;
7817;SDS011;3954;52.624;9.212;2023-02-28T00:56:40;6.87;;;5.53;;
7817;SDS011;3954;52.624;9.212;2023-02-28T00:59:06;6.47;;;4.87;;
7817;SDS011;3954;52.624;9.212;2023-02-28T01:01:32;8.20;;;5.60;;
7817;SDS011;3954;52.624;9.212;2023-02-28T01:03:58;9.00;;;5.90;;
7817;SDS011;3954;52.624;9.212;2023-02-28T01:06:25;8.50;;;5.83;;
7817;SDS011;3954;52.624;9.212;2023-02-28T01:08:51;10.17;;;6.20;;
7817;SDS011;3954;52.624;9.212;2023-02-28T01:11:18;9.90;;;5.90;;
7817;SDS011;3954;52.624;9.212;2023-02-28T01:13:45;7.90;;;5.97;;
7817;SDS011;3954;52.624;9.212;2023-02-28T01:16:11;8.77;;;5.63;;
7817;SDS011;3954;52.624;9.212;2023-02-28T01:18:37;9.63;;;6.77;;
7817;SDS011;3954;52.624;9.212;2023-02-28T01:21:04;8.87;;;5.70;;
7817;SDS011;3954;52.624;9.212;2023-02-28T01:23:31;7.20;;;5.47;;
7817;SDS011;3954;52.624;9.212;2023-02-28T01:25:58;10.30;;;5.00;;
7817;SDS011;3954;52.624;9.212;2023-02-28T01:28:28;10.20;;;5.60;;
7817;SDS011;3954;52.624;9.212;2023-02-28T01:30:54;7.97;;;5.03;;
7817;SDS011;3954;52.624;9.212;2023-02-28T01:33:20;6.43;;;4.70;;
7817;SDS011;3954;52.624;9.212;2023-02-28T01:35:46;7.10;;;5.20;;
7817;SDS011;3954;52.624;9.212;2023-02-28T01:38:12;6.30;;;4.87;;
7817;SDS011;3954;52.624;9.212;2023-02-28T01:40:40;6.70;;;5.17;;
7817;SDS011;3954;52.624;9.212;2023-02-28T01:43:08;7.70;;;5.53;;
7817;SDS011;3954;52.624;9.212;2023-02-28T01:45:42;8.47;;;5.40;;
7817;SDS011;3954;52.624;9.212;2023-02-28T01:48:08;7.10;;;4.90;;
7817;SDS011;3954;52.624;9.212;2023-02-28T01:50:35;7.03;;;4.90;;
7817;SDS011;3954;52.624;9.212;2023-02-28T01:53:03;7.27;;;5.13;;
7817;SDS011;3954;52.624;9.212;2023-02-28T01:55:30;8.10;;;5.10;;
7817;SDS011;3954;52.624;9.212;2023-02-28T01:57:58;8.77;;;5.53;;
7817;SDS011;3954;52.624;9.212;2023-02-28T02:00:26;7.77;;;5.50;;
7817;SDS011;3954;52.624;9.212;2023-02-28T02:02:53;7.13;;;5.17;;
7817;SDS011;3954;52.624;9.212;2023-02-28T02:05:20;5.57;;;4.93;;
7817;SDS011;3954;52.624;9.212;2023-02-28T02:07:47;10.30;;;5.33;;
7817;SDS011;3954;52.624;9.212;2023-02-28T02:10:14;6.93;;;4.90;;
7817;SDS011;3954;52.624;9.212;2023-02-28T02:12:51;7.23;;;5.07;;
7817;SDS011;3954;52.624;9.212;2023-02-28T02:15:24;6.33;;;4.60;;
7817;SDS011;3954;52.624;9.212;2023-02-28T02:17:52;7.03;;;4.70;;
7817;SDS011;3954;52.624;9.212;2023-02-28T02:20:33;6.17;;;4.40;;
7817;SDS011;3954;52.624;9.212;2023-02-28T02:25:45;5.40;;;4.07;;
7817;SDS011;3954;52.624;9.212;2023-02-28T02:28:20;6.60;;;4.47;;
7817;SDS011;3954;52.624;9.212;2023-02-28T02:33:42;5.37;;;4.70;;
7817;SDS011;3954;52.624;9.212;2023-02-28T02:36:13;5.43;;;4.33;;
7817;SDS011;3954;52.624;9.212;2023-02-28T02:38:42;6.83;;;4.60;;
7817;SDS011;3954;52.624;9.212;2023-02-28T02:41:13;4.80;;;4.10;;
7817;SDS011;3954;52.624;9.212;2023-02-28T02:43:43;5.83;;;4.77;;
7817;SDS011;3954;52.624;9.212;2023-02-28T02:46:12;7.17;;;4.33;;
7817;SDS011;3954;52.624;9.212;2023-02-28T02:48:40;6.27;;;4.47;;
7817;SDS011;3954;52.624;9.212;2023-02-28T02:51:09;5.40;;;4.30;;
7817;SDS011;3954;52.624;9.212;2023-02-28T02:53:40;5.77;;;4.03;;
7817;SDS011;3954;52.624;9.212;2023-02-28T02:56:07;5.93;;;4.40;;
7817;SDS011;3954;52.624;9.212;2023-02-28T02:58:34;6.10;;;4.60;;
7817;SDS011;3954;52.624;9.212;2023-02-28T03:01:01;6.57;;;4.40;;
7817;SDS011;3954;52.624;9.212;2023-02-28T03:03:28;7.00;;;4.87;;
7817;SDS011;3954;52.624;9.212;2023-02-28T03:05:55;6.13;;;4.97;;
7817;SDS011;3954;52.624;9.212;2023-02-28T03:08:22;6.20;;;4.23;;
7817;SDS011;3954;52.624;9.212;2023-02-28T03:10:50;7.27;;;5.13;;
7817;SDS011;3954;52.624;9.212;2023-02-28T03:18:51;6.30;;;4.83;;
7817;SDS011;3954;52.624;9.212;2023-02-28T03:21:21;6.23;;;3.83;;
7817;SDS011;3954;52.624;9.212;2023-02-28T03:23:50;5.53;;;4.13;;
7817;SDS011;3954;52.624;9.212;2023-02-28T03:26:21;4.80;;;3.87;;
7817;SDS011;3954;52.624;9.212;2023-02-28T03:28:50;7.17;;;4.10;;
7817;SDS011;3954;52.624;9.212;2023-02-28T03:31:18;6.23;;;3.83;;
7817;SDS011;3954;52.624;9.212;2023-02-28T03:33:46;5.30;;;4.27;;
7817;SDS011;3954;52.624;9.212;2023-02-28T03:36:19;4.80;;;3.83;;
7817;SDS011;3954;52.624;9.212;2023-02-28T03:38:47;7.20;;;4.97;;
7817;SDS011;3954;52.624;9.212;2023-02-28T03:41:15;6.50;;;4.50;;
7817;SDS011;3954;52.624;9.212;2023-02-28T03:43:44;8.23;;;5.00;;
7817;SDS011;3954;52.624;9.212;2023-02-28T03:46:12;6.20;;;4.10;;
7817;SDS011;3954;52.624;9.212;2023-02-28T03:48:40;6.17;;;4.40;;
7817;SDS011;3954;52.624;9.212;2023-02-28T03:51:08;9.00;;;4.33;;
7817;SDS011;3954;52.624;9.212;2023-02-28T03:53:36;6.93;;;4.30;;
7817;SDS011;3954;52.624;9.212;2023-02-28T03:56:05;5.07;;;4.23;;
7817;SDS011;3954;52.624;9.212;2023-02-28T03:58:35;6.93;;;4.30;;
7817;SDS011;3954;52.624;9.212;2023-02-28T04:01:05;9.17;;;4.90;;
7817;SDS011;3954;52.624;9.212;2023-02-28T04:03:34;7.67;;;4.87;;
7817;SDS011;3954;52.624;9.212;2023-02-28T04:06:00;9.07;;;5.17;;
7817;SDS011;3954;52.624;9.212;2023-02-28T04:08:26;8.27;;;4.83;;
7817;SDS011;3954;52.624;9.212;2023-02-28T04:10:53;6.23;;;4.90;;
7817;SDS011;3954;52.624;9.212;2023-02-28T04:13:21;6.90;;;4.30;;
7817;SDS011;3954;52.624;9.212;2023-02-28T04:15:47;5.57;;;4.20;;
7817;SDS011;3954;52.624;9.212;2023-02-28T04:18:15;6.13;;;4.17;;
7817;SDS011;3954;52.624;9.212;2023-02-28T04:20:41;7.77;;;4.30;;
7817;SDS011;3954;52.624;9.212;2023-02-28T04:23:07;6.10;;;3.93;;
7817;SDS011;3954;52.624;9.212;2023-02-28T04:25:33;7.80;;;4.50;;
7817;SDS011;3954;52.624;9.212;2023-02-28T04:27:59;5.70;;;4.20;;
7817;SDS011;3954;52.624;9.212;2023-02-28T04:30:25;7.47;;;4.23;;
7817;SDS011;3954;52.624;9.212;2023-02-28T04:32:51;5.13;;;3.90;;
7817;SDS011;3954;52.624;9.212;2023-02-28T04:35:18;5.90;;;4.17;;
7817;SDS011;3954;52.624;9.212;2023-02-28T04:37:44;5.90;;;4.27;;
7817;SDS011;3954;52.624;9.212;2023-02-28T04:40:10;7.40;;;5.10;;
7817;SDS011;3954;52.624;9.212;2023-02-28T04:42:36;6.17;;;4.27;;
7817;SDS011;3954;52.624;9.212;2023-02-28T04:45:02;5.83;;;3.93;;
7817;SDS011;3954;52.624;9.212;2023-02-28T04:47:29;5.50;;;3.43;;
7817;SDS011;3954;52.624;9.212;2023-02-28T04:49:55;5.13;;;3.80;;
7817;SDS011;3954;52.624;9.212;2023-02-28T04:52:22;4.93;;;3.80;;
7817;SDS011;3954;52.624;9.212;2023-02-28T04:54:48;3.90;;;3.40;;
7817;SDS011;3954;52.624;9.212;2023-02-28T04:57:14;4.67;;;3.03;;
7817;SDS011;3954;52.624;9.212;2023-02-28T04:59:40;3.73;;;2.83;;
7817;SDS011;3954;52.624;9.212;2023-02-28T05:02:06;4.73;;;3.00;;
7817;SDS011;3954;52.624;9.212;2023-02-28T05:04:32;3.67;;;3.10;;
7817;SDS011;3954;52.624;9.212;2023-02-28T05:06:59;4.83;;;3.10;;
7817;SDS011;3954;52.624;9.212;2023-02-28T05:09:26;3.47;;;2.90;;
7817;SDS011;3954;52.624;9.212;2023-02-28T05:11:53;3.37;;;3.03;;
7817;SDS011;3954;52.624;9.212;2023-02-28T05:14:19;3.80;;;3.10;;
7817;SDS011;3954;52.624;9.212;2023-02-28T05:16:45;3.77;;;3.33;;
7817;SDS011;3954;52.624;9.212;2023-02-28T05:19:11;3.33;;;3.03;;
7817;SDS011;3954;52.624;9.212;2023-02-28T05:21:38;4.27;;;3.20;;
7817;SDS011;3954;52.624;9.212;2023-02-28T05:24:05;4.60;;;3.07;;
7817;SDS011;3954;52.624;9.212;2023-02-28T05:26:35;4.57;;;3.40;;
7817;SDS011;3954;52.624;9.212;2023-02-28T05:29:01;4.87;;;3.17;;
7817;SDS011;3954;52.624;9.212;2023-02-28T05:31:27;4.13;;;2.97;;
7817;SDS011;3954;52.624;9.212;2023-02-28T05:33:53;3.33;;;2.90;;
7817;SDS011;3954;52.624;9.212;2023-02-28T05:36:19;3.03;;;2.80;;
7817;SDS011;3954;52.624;9.212;2023-02-28T05:38:46;4.07;;;3.20;;
7817;SDS011;3954;52.624;9.212;2023-02-28T05:41:12;5.43;;;3.60;;
7817;SDS011;3954;52.624;9.212;2023-02-28T05:43:39;5.67;;;3.60;;
7817;SDS011;3954;52.624;9.212;2023-02-28T05:46:06;4.57;;;3.80;;
7817;SDS011;3954;52.624;9.212;2023-02-28T05:48:32;4.80;;;3.80;;
7817;SDS011;3954;52.624;9.212;2023-02-28T05:50:58;5.67;;;3.83;;
7817;SDS011;3954;52.624;9.212;2023-02-28T05:53:24;5.60;;;4.20;;
7817;SDS011;3954;52.624;9.212;2023-02-28T05:55:51;5.50;;;4.57;;
7817;SDS011;3954;52.624;9.212;2023-02-28T05:58:17;7.90;;;4.80;;
7817;SDS011;3954;52.624;9.212;2023-02-28T06:00:45;6.93;;;4.70;;
7817;SDS011;3954;52.624;9.212;2023-02-28T06:03:11;5.63;;;3.80;;
7817;SDS011;3954;52.624;9.212;2023-02-28T06:05:37;5.60;;;4.33;;
7817;SDS011;3954;52.624;9.212;2023-02-28T06:08:03;4.43;;;3.77;;
7817;SDS011;3954;52.624;9.212;2023-02-28T06:10:32;7.37;;;4.20;;
7817;SDS011;3954;52.624;9.212;2023-02-28T06:12:59;7.73;;;4.50;;
7817;SDS011;3954;52.624;9.212;2023-02-28T06:15:25;5.47;;;4.57;;
7817;SDS011;3954;52.624;9.212;2023-02-28T06:17:52;4.57;;;4.13;;
7817;SDS011;3954;52.624;9.212;2023-02-28T06:20:18;6.43;;;4.00;;
7817;SDS011;3954;52.624;9.212;2023-02-28T06:22:45;6.77;;;4.40;;
7817;SDS011;3954;52.624;9.212;2023-02-28T06:25:10;7.57;;;5.07;;
7817;SDS011;3954;52.624;9.212;2023-02-28T06:27:37;7.40;;;4.23;;
7817;SDS011;3954;52.624;9.212;2023-02-28T06:30:03;10.00;;;5.90;;
7817;SDS011;3954;52.624;9.212;2023-02-28T06:32:29;8.93;;;5.40;;
7817;SDS011;3954;52.624;9.212;2023-02-28T06:34:56;8.30;;;5.77;;
7817;SDS011;3954;52.624;9.212;2023-02-28T06:37:23;6.93;;;5.50;;
7817;SDS011;3954;52.624;9.212;2023-02-28T06:39:51;9.53;;;4.93;;
7817;SDS011;3954;52.624;9.212;2023-02-28T06:42:17;4.97;;;4.37;;
7817;SDS011;3954;52.624;9.212;2023-02-28T06:44:43;4.73;;;3.87;;
7817;SDS011;3954;52.624;9.212;2023-02-28T06:47:09;6.20;;;3.93;;
7817;SDS011;3954;52.624;9.212;2023-02-28T06:49:35;4.07;;;3.20;;
7817;SDS011;3954;52.624;9.212;2023-02-28T06:52:03;5.23;;;3.40;;
7817;SDS011;3954;52.624;9.212;2023-02-28T06:54:29;4.10;;;3.40;;
7817;SDS011;3954;52.624;9.212;2023-02-28T06:56:55;4.67;;;3.87;;
7817;SDS011;3954;52.624;9.212;2023-02-28T06:59:23;5.03;;;3.80;;
7817;SDS011;3954;52.624;9.212;2023-02-28T07:01:49;4.60;;;3.80;;
7817;SDS011;3954;52.624;9.212;2023-02-28T07:04:15;6.57;;;3.90;;
7817;SDS011;3954;52.624;9.212;2023-02-28T07:06:41;5.60;;;4.40;;
7817;SDS011;3954;52.624;9.212;2023-02-28T07:09:08;4.77;;;4.20;;
7817;SDS011;3954;52.624;9.212;2023-02-28T07:11:35;6.60;;;4.30;;
7817;SDS011;3954;52.624;9.212;2023-02-28T07:14:01;7.17;;;4.10;;
7817;SDS011;3954;52.624;9.212;2023-02-28T07:16:27;5.07;;;4.17;;
7817;SDS011;3954;52.624;9.212;2023-02-28T07:18:53;5.43;;;3.77;;
7817;SDS011;3954;52.624;9.212;2023-02-28T07:21:20;4.77;;;4.17;;
7817;SDS011;3954;52.624;9.212;2023-02-28T07:23:46;6.83;;;4.80;;
7817;SDS011;3954;52.624;9.212;2023-02-28T07:26:14;6.50;;;4.57;;
7817;SDS011;3954;52.624;9.212;2023-02-28T07:28:42;6.47;;;4.43;;
7817;SDS011;3954;52.624;9.212;2023-02-28T07:31:08;5.60;;;3.90;;
7817;SDS011;3954;52.624;9.212;2023-02-28T07:33:34;5.67;;;4.47;;
7817;SDS011;3954;52.624;9.212;2023-02-28T07:36:00;5.50;;;4.30;;
7817;SDS011;3954;52.624;9.212;2023-02-28T07:38:26;5.43;;;4.13;;
7817;SDS011;3954;52.624;9.212;2023-02-28T07:40:52;5.13;;;4.53;;
7817;SDS011;3954;52.624;9.212;2023-02-28T07:43:20;7.13;;;4.90;;
7817;SDS011;3954;52.624;9.212;2023-02-28T07:45:46;6.57;;;5.07;;
7817;SDS011;3954;52.624;9.212;2023-02-28T07:48:12;5.17;;;4.27;;
7817;SDS011;3954;52.624;9.212;2023-02-28T07:50:38;5.40;;;4.50;;
7817;SDS011;3954;52.624;9.212;2023-02-28T07:53:04;6.20;;;4.90;;
7817;SDS011;3954;52.624;9.212;2023-02-28T07:55:30;6.20;;;4.80;;
7817;SDS011;3954;52.624;9.212;2023-02-28T07:57:56;6.03;;;4.87;;
7817;SDS011;3954;52.624;9.212;2023-02-28T08:00:24;7.30;;;5.20;;
7817;SDS011;3954;52.624;9.212;2023-02-28T08:02:50;6.60;;;5.00;;
7817;SDS011;3954;52.624;9.212;2023-02-28T08:05:16;7.43;;;4.67;;
7817;SDS011;3954;52.624;9.212;2023-02-28T08:07:42;5.87;;;4.50;;
7817;SDS011;3954;52.624;9.212;2023-02-28T08:10:08;8.60;;;5.33;;
7817;SDS011;3954;52.624;9.212;2023-02-28T08:12:35;7.10;;;4.93;;
7817;SDS011;3954;52.624;9.212;2023-02-28T08:15:01;5.83;;;4.80;;
7817;SDS011;3954;52.624;9.212;2023-02-28T08:17:28;4.90;;;4.20;;
7817;SDS011;3954;52.624;9.212;2023-02-28T08:19:54;5.97;;;4.57;;
7817;SDS011;3954;52.624;9.212;2023-02-28T08:22:20;4.50;;;4.10;;
7817;SDS011;3954;52.624;9.212;2023-02-28T08:24:46;5.57;;;4.20;;
7817;SDS011;3954;52.624;9.212;2023-02-28T08:27:12;4.87;;;4.30;;
7817;SDS011;3954;52.624;9.212;2023-02-28T08:29:38;5.37;;;4.17;;
7817;SDS011;3954;52.624;9.212;2023-02-28T08:32:05;6.43;;;4.30;;
7817;SDS011;3954;52.624;9.212;2023-02-28T08:34:32;6.13;;;4.60;;
7817;SDS011;3954;52.624;9.212;2023-02-28T08:36:58;5.87;;;4.30;;
7817;SDS011;3954;52.624;9.212;2023-02-28T08:39:25;5.77;;;4.10;;
7817;SDS011;3954;52.624;9.212;2023-02-28T08:41:51;4.30;;;3.90;;
7817;SDS011;3954;52.624;9.212;2023-02-28T08:44:17;5.57;;;4.10;;
7817;SDS011;3954;52.624;9.212;2023-02-28T08:46:43;5.00;;;3.40;;
7817;SDS011;3954;52.624;9.212;2023-02-28T08:49:09;4.70;;;3.83;;
7817;SDS011;3954;52.624;9.212;2023-02-28T08:51:37;4.30;;;3.47;;
7817;SDS011;3954;52.624;9.212;2023-02-28T08:54:04;4.30;;;3.67;;
7817;SDS011;3954;52.624;9.212;2023-02-28T08:56:30;6.00;;;3.70;;
7817;SDS011;3954;52.624;9.212;2023-02-28T08:58:56;5.40;;;3.63;;
7817;SDS011;3954;52.624;9.212;2023-02-28T09:01:22;5.00;;;3.87;;
7817;SDS011;3954;52.624;9.212;2023-02-28T09:03:49;5.77;;;3.80;;
7817;SDS011;3954;52.624;9.212;2023-02-28T09:06:16;5.03;;;3.40;;
7817;SDS011;3954;52.624;9.212;2023-02-28T09:08:43;4.47;;;3.20;;
7817;SDS011;3954;52.624;9.212;2023-02-28T09:11:10;3.87;;;3.37;;
7817;SDS011;3954;52.624;9.212;2023-02-28T09:13:36;4.27;;;3.57;;
7817;SDS011;3954;52.624;9.212;2023-02-28T09:16:03;6.43;;;3.90;;
7817;SDS011;3954;52.624;9.212;2023-02-28T09:18:30;3.83;;;3.17;;
7817;SDS011;3954;52.624;9.212;2023-02-28T09:20:56;6.40;;;3.37;;
7817;SDS011;3954;52.624;9.212;2023-02-28T09:23:22;3.50;;;3.07;;
7817;SDS011;3954;52.624;9.212;2023-02-28T09:25:50;4.50;;;2.83;;
7817;SDS011;3954;52.624;9.212;2023-02-28T09:28:17;4.93;;;2.67;;
7817;SDS011;3954;52.624;9.212;2023-02-28T09:30:44;5.30;;;3.10;;
7817;SDS011;3954;52.624;9.212;2023-02-28T09:33:10;3.43;;;2.60;;
7817;SDS011;3954;52.624;9.212;2023-02-28T09:35:36;4.60;;;2.80;;
7817;SDS011;3954;52.624;9.212;2023-02-28T09:38:02;4.53;;;2.30;;
7817;SDS011;3954;52.624;9.212;2023-02-28T09:40:28;3.67;;;2.40;;
7817;SDS011;3954;52.624;9.212;2023-02-28T09:42:57;2.60;;;2.20;;
7817;SDS011;3954;52.624;9.212;2023-02-28T09:45:24;3.67;;;2.30;;
7817;SDS011;3954;52.624;9.212;2023-02-28T09:47:53;4.77;;;2.47;;
7817;SDS011;3954;52.624;9.212;2023-02-28T09:50:22;3.13;;;2.03;;
7817;SDS011;3954;52.624;9.212;2023-02-28T09:52:49;2.33;;;2.10;;
7817;SDS011;3954;52.624;9.212;2023-02-28T09:55:19;2.10;;;1.90;;
7817;SDS011;3954;52.624;9.212;2023-02-28T09:57:45;2.43;;;1.87;;
7817;SDS011;3954;52.624;9.212;2023-02-28T10:00:15;2.60;;;1.97;;
7817;SDS011;3954;52.624;9.212;2023-02-28T10:05:29;3.67;;;1.70;;
7817;SDS011;3954;52.624;9.212;2023-02-28T10:08:00;1.70;;;1.40;;
7817;SDS011;3954;52.624;9.212;2023-02-28T10:10:32;1.50;;;1.33;;
7817;SDS011;3954;52.624;9.212;2023-02-28T10:12:59;1.63;;;1.50;;
7817;SDS011;3954;52.624;9.212;2023-02-28T10:15:29;1.30;;;1.20;;
7817;SDS011;3954;52.624;9.212;2023-02-28T10:17:57;2.57;;;1.60;;
7817;SDS011;3954;52.624;9.212;2023-02-28T10:20:24;1.40;;;1.10;;
7817;SDS011;3954;52.624;9.212;2023-02-28T10:22:57;1.87;;;1.40;;
7817;SDS011;3954;52.624;9.212;2023-02-28T10:25:24;1.33;;;1.07;;
7817;SDS011;3954;52.624;9.212;2023-02-28T10:27:52;1.73;;;1.63;;
7817;SDS011;3954;52.624;9.212;2023-02-28T10:30:18;1.50;;;1.27;;
7817;SDS011;3954;52.624;9.212;2023-02-28T10:32:47;1.13;;;1.03;;
7817;SDS011;3954;52.624;9.212;2023-02-28T10:35:14;1.90;;;1.40;;
7817;SDS011;3954;52.624;9.212;2023-02-28T10:37:41;1.77;;;1.37;;
7817;SDS011;3954;52.624;9.212;2023-02-28T10:40:11;1.47;;;1.23;;
7817;SDS011;3954;52.624;9.212;2023-02-28T10:42:54;1.60;;;1.33;;
7817;SDS011;3954;52.624;9.212;2023-02-28T10:45:21;2.17;;;1.33;;
7817;SDS011;3954;52.624;9.212;2023-02-28T10:47:51;1.40;;;1.30;;
7817;SDS011;3954;52.624;9.212;2023-02-28T10:50:28;2.47;;;1.40;;
7817;SDS011;3954;52.624;9.212;2023-02-28T10:52:56;1.53;;;1.30;;
7817;SDS011;3954;52.624;9.212;2023-02-28T10:55:30;1.30;;;1.20;;
7817;SDS011;3954;52.624;9.212;2023-02-28T10:57:57;1.70;;;1.23;;
7817;SDS011;3954;52.624;9.212;2023-02-28T11:00:24;2.77;;;1.50;;
7817;SDS011;3954;52.624;9.212;2023-02-28T11:02:51;1.20;;;1.10;;
7817;SDS011;3954;52.624;9.212;2023-02-28T11:05:24;2.27;;;1.60;;
7817;SDS011;3954;52.624;9.212;2023-02-28T11:07:51;1.97;;;1.10;;
7817;SDS011;3954;52.624;9.212;2023-02-28T11:10:18;1.43;;;1.30;;
7817;SDS011;3954;52.624;9.212;2023-02-28T11:12:46;1.63;;;1.30;;
7817;SDS011;3954;52.624;9.212;2023-02-28T11:15:21;2.63;;;1.30;;
7817;SDS011;3954;52.624;9.212;2023-02-28T11:17:54;1.70;;;1.20;;
7817;SDS011;3954;52.624;9.212;2023-02-28T11:20:22;1.50;;;1.40;;
7817;SDS011;3954;52.624;9.212;2023-02-28T11:22:48;2.43;;;1.60;;
7817;SDS011;3954;52.624;9.212;2023-02-28T11:25:16;1.40;;;1.30;;
7817;SDS011;3954;52.624;9.212;2023-02-28T11:27:46;2.90;;;1.40;;
7817;SDS011;3954;52.624;9.212;2023-02-28T11:30:23;1.23;;;1.13;;
7817;SDS011;3954;52.624;9.212;2023-02-28T11:32:49;1.40;;;1.30;;
7817;SDS011;3954;52.624;9.212;2023-02-28T11:35:17;1.67;;;1.43;;
7817;SDS011;3954;52.624;9.212;2023-02-28T11:37:47;1.90;;;1.60;;
7817;SDS011;3954;52.624;9.212;2023-02-28T11:40:14;1.60;;;1.40;;
7817;SDS011;3954;52.624;9.212;2023-02-28T11:42:44;1.83;;;1.50;;
7817;SDS011;3954;52.624;9.212;2023-02-28T11:45:12;1.97;;;1.40;;
7817;SDS011;3954;52.624;9.212;2023-02-28T11:47:44;1.60;;;1.50;;
7817;SDS011;3954;52.624;9.212;2023-02-28T11:50:18;1.60;;;1.30;;
7817;SDS011;3954;52.624;9.212;2023-02-28T11:52:48;1.50;;;1.40;;
7817;SDS011;3954;52.624;9.212;2023-02-28T11:55:17;1.50;;;1.40;;
7817;SDS011;3954;52.624;9.212;2023-02-28T11:57:49;2.47;;;1.50;;
7817;SDS011;3954;52.624;9.212;2023-02-28T12:00:20;5.17;;;1.50;;
7817;SDS011;3954;52.624;9.212;2023-02-28T12:02:54;2.37;;;1.67;;
7817;SDS011;3954;52.624;9.212;2023-02-28T12:05:28;2.17;;;1.97;;
7817;SDS011;3954;52.624;9.212;2023-02-28T12:07:58;2.43;;;1.80;;
7817;SDS011;3954;52.624;9.212;2023-02-28T12:10:28;2.80;;;1.50;;
7817;SDS011;3954;52.624;9.212;2023-02-28T12:12:58;1.73;;;1.60;;
7817;SDS011;3954;52.624;9.212;2023-02-28T12:15:36;2.27;;;1.50;;
7817;SDS011;3954;52.624;9.212;2023-02-28T12:18:09;1.60;;;1.50;;
7817;SDS011;3954;52.624;9.212;2023-02-28T12:20:39;2.70;;;2.00;;
7817;SDS011;3954;52.624;9.212;2023-02-28T12:23:14;3.07;;;1.60;;
7817;SDS011;3954;52.624;9.212;2023-02-28T12:25:47;1.87;;;1.43;;
7817;SDS011;3954;52.624;9.212;2023-02-28T12:28:16;2.27;;;1.50;;
7817;SDS011;3954;52.624;9.212;2023-02-28T12:30:45;3.00;;;1.90;;
7817;SDS011;3954;52.624;9.212;2023-02-28T12:33:14;2.07;;;1.57;;
7817;SDS011;3954;52.624;9.212;2023-02-28T12:35:44;1.70;;;1.60;;
7817;SDS011;3954;52.624;9.212;2023-02-28T12:38:12;2.30;;;1.80;;
7817;SDS011;3954;52.624;9.212;2023-02-28T12:40:43;1.60;;;1.50;;
7817;SDS011;3954;52.624;9.212;2023-02-28T12:43:11;2.13;;;1.87;;
7817;SDS011;3954;52.624;9.212;2023-02-28T12:45:40;2.20;;;1.70;;
7817;SDS011;3954;52.624;9.212;2023-02-28T12:48:08;1.83;;;1.50;;
7817;SDS011;3954;52.624;9.212;2023-02-28T12:50:35;2.30;;;1.73;;
7817;SDS011;3954;52.624;9.212;2023-02-28T12:53:05;4.13;;;1.67;;
7817;SDS011;3954;52.624;9.212;2023-02-28T12:55:33;1.83;;;1.40;;
7817;SDS011;3954;52.624;9.212;2023-02-28T12:58:05;1.60;;;1.50;;
7817;SDS011;3954;52.624;9.212;2023-02-28T13:00:33;2.40;;;2.10;;
7817;SDS011;3954;52.624;9.212;2023-02-28T13:03:09;3.50;;;1.60;;
7817;SDS011;3954;52.624;9.212;2023-02-28T13:05:46;2.07;;;1.40;;
7817;SDS011;3954;52.624;9.212;2023-02-28T13:08:31;1.40;;;1.30;;
7817;SDS011;3954;52.624;9.212;2023-02-28T13:11:02;2.43;;;1.30;;
7817;SDS011;3954;52.624;9.212;2023-02-28T13:13:29;2.10;;;1.73;;
7817;SDS011;3954;52.624;9.212;2023-02-28T13:15:57;3.40;;;1.90;;
7817;SDS011;3954;52.624;9.212;2023-02-28T13:18:27;1.67;;;1.30;;
7817;SDS011;3954;52.624;9.212;2023-02-28T13:20:54;1.93;;;1.60;;
7817;SDS011;3954;52.624;9.212;2023-02-28T13:23:41;1.50;;;1.40;;
7817;SDS011;3954;52.624;9.212;2023-02-28T13:29:20;1.60;;;1.50;;
7817;SDS011;3954;52.624;9.212;2023-02-28T13:34:31;1.53;;;1.30;;
7817;SDS011;3954;52.624;9.212;2023-02-28T13:39:47;1.70;;;1.47;;
7817;SDS011;3954;52.624;9.212;2023-02-28T13:42:23;2.37;;;1.43;;
7817;SDS011;3954;52.624;9.212;2023-02-28T13:47:37;1.90;;;1.70;;
7817;SDS011;3954;52.624;9.212;2023-02-28T13:52:51;1.70;;;1.43;;
7817;SDS011;3954;52.624;9.212;2023-02-28T13:55:24;1.67;;;1.40;;
7817;SDS011;3954;52.624;9.212;2023-02-28T13:57:58;3.07;;;1.40;;
7817;SDS011;3954;52.624;9.212;2023-02-28T14:00:33;2.50;;;2.00;;
7817;SDS011;3954;52.624;9.212;2023-02-28T14:03:05;3.00;;;1.70;;
7817;SDS011;3954;52.624;9.212;2023-02-28T14:05:34;2.07;;;1.70;;
7817;SDS011;3954;52.624;9.212;2023-02-28T14:08:03;1.63;;;1.40;;
7817;SDS011;3954;52.624;9.212;2023-02-28T14:10:32;1.30;;;1.20;;
7817;SDS011;3954;52.624;9.212;2023-02-28T14:13:01;1.43;;;1.17;;
7817;SDS011;3954;52.624;9.212;2023-02-28T14:15:30;1.67;;;1.23;;
7817;SDS011;3954;52.624;9.212;2023-02-28T14:18:00;3.80;;;1.73;;
7817;SDS011;3954;52.624;9.212;2023-02-28T14:20:27;1.43;;;1.33;;
7817;SDS011;3954;52.624;9.212;2023-02-28T14:22:56;1.40;;;1.10;;
7817;SDS011;3954;52.624;9.212;2023-02-28T14:25:32;2.13;;;1.70;;
7817;SDS011;3954;52.624;9.212;2023-02-28T14:28:04;1.87;;;1.70;;
7817;SDS011;3954;52.624;9.212;2023-02-28T14:30:43;1.73;;;1.50;;
7817;SDS011;3954;52.624;9.212;2023-02-28T14:33:18;1.40;;;1.30;;
7817;SDS011;3954;52.624;9.212;2023-02-28T14:35:50;4.07;;;1.70;;
7817;SDS011;3954;52.624;9.212;2023-02-28T14:38:20;1.97;;;1.40;;
7817;SDS011;3954;52.624;9.212;2023-02-28T14:40:48;2.03;;;1.43;;
7817;SDS011;3954;52.624;9.212;2023-02-28T14:43:19;1.50;;;1.40;;
7817;SDS011;3954;52.624;9.212;2023-02-28T14:45:48;2.13;;;1.50;;
7817;SDS011;3954;52.624;9.212;2023-02-28T14:48:15;1.40;;;1.30;;
7817;SDS011;3954;52.624;9.212;2023-02-28T14:50:42;1.97;;;1.40;;
7817;SDS011;3954;52.624;9.212;2023-02-28T14:53:15;1.70;;;1.17;;
7817;SDS011;3954;52.624;9.212;2023-02-28T14:55:43;1.53;;;1.40;;
7817;SDS011;3954;52.624;9.212;2023-02-28T14:58:19;1.83;;;1.50;;
7817;SDS011;3954;52.624;9.212;2023-02-28T15:00:47;2.37;;;1.70;;
7817;SDS011;3954;52.624;9.212;2023-02-28T15:03:17;1.70;;;1.30;;
7817;SDS011;3954;52.624;9.212;2023-02-28T15:05:47;1.77;;;1.33;;
7817;SDS011;3954;52.624;9.212;2023-02-28T15:08:16;2.10;;;1.23;;
7817;SDS011;3954;52.624;9.212;2023-02-28T15:10:45;2.93;;;1.50;;
7817;SDS011;3954;52.624;9.212;2023-02-28T15:13:12;1.97;;;1.60;;
7817;SDS011;3954;52.624;9.212;2023-02-28T15:15:42;3.30;;;1.50;;
7817;SDS011;3954;52.624;9.212;2023-02-28T15:18:10;1.67;;;1.57;;
7817;SDS011;3954;52.624;9.212;2023-02-28T15:20:40;2.57;;;1.57;;
7817;SDS011;3954;52.624;9.212;2023-02-28T15:23:08;1.73;;;1.47;;
7817;SDS011;3954;52.624;9.212;2023-02-28T15:25:34;1.73;;;1.60;;
7817;SDS011;3954;52.624;9.212;2023-02-28T15:28:00;1.90;;;1.63;;
7817;SDS011;3954;52.624;9.212;2023-02-28T15:30:27;1.93;;;1.40;;
7817;SDS011;3954;52.624;9.212;2023-02-28T15:33:17;1.40;;;1.30;;
7817;SDS011;3954;52.624;9.212;2023-02-28T15:35:43;2.57;;;1.60;;
7817;SDS011;3954;52.624;9.212;2023-02-28T15:38:13;1.80;;;1.50;;
7817;SDS011;3954;52.624;9.212;2023-02-28T15:40:41;2.13;;;1.70;;
7817;SDS011;3954;52.624;9.212;2023-02-28T15:43:12;2.70;;;2.00;;
7817;SDS011;3954;52.624;9.212;2023-02-28T15:45:41;1.73;;;1.40;;
7817;SDS011;3954;52.624;9.212;2023-02-28T15:48:18;1.70;;;1.60;;